Mt. Airy Forest Ridge Run - 5.4 Miles
Cincinnati, OH
Sunday, May 20, 2007 9:00 am


Results 5.4 mile Trail Run

Place Name Age Sex City State Time Pace Div/Tot Div Sex/Tot Sex
1 COURT LILLY 29 M HEBRON KY 29:03 5:23 1/83 MRun 1/83 M
2 BRAD MILLS 30 M HAMILTON OH 31:22 5:49 2/83 MRun 2/83 M
3 DAVID BEA 28 M CINCINNATI OH 32:35 6:02 3/83 MRun 3/83 M
4 MATT MOTSINGER 27 M BATAVIA OH 33:10 6:09 4/83 MRun 4/83 M
5 DANNY JOSEPH 44 M LIMA OH 33:16 6:10 5/83 MRun 5/83 M
6 BEN DUNCAN 23 M SPRINGBORO OH 33:21 6:11 6/83 MRun 6/83 M
7 CLETE MILLS 33 M FAIRFIELD OH 33:32 6:13 7/83 MRun 7/83 M
8 ANDREW ALLWEIN 36 M MADISONVILLE OH 33:53 6:17 8/83 MRun 8/83 M
9 STEVE ADKISSON 49 M DIXIE KY 33:54 6:17 9/83 MRun 9/83 M
10 MIKE WATTS 17 M LOVELAND OH 34:15 6:21 10/83 MRun 10/83 M
11 JOHN OLTMAN 26 M CINCINNATI OH 34:20 6:22 11/83 MRun 11/83 M
12 CHRIS CAVANAUGH 36 M COLLEGE HILL OH 34:52 6:28 12/83 MRun 12/83 M
13 GLENN SMITH 44 M SPRINGFIELD OH 35:05 6:30 13/83 MRun 13/83 M
14 SCOTT HASSON 29 M CINCINNATI OH 35:13 6:32 14/83 MRun 14/83 M
15 MICHAEL RIOUX 40 M CINCINNATI OH 35:19 6:33 15/83 MRun 15/83 M
16 CRAIG NORTH 51 M CINCINNATI OH 35:46 6:38 16/83 MRun 16/83 M
17 CHARLES STRATTON 20 M CINCINNATI OH 35:59 6:40 17/83 MRun 17/83 M
18 MISHA MCCORMICK 15 M SYCAMORE OH 36:14 6:43 18/83 MRun 18/83 M
19 JOSH STEVENS 23 M CINCINNATI OH 36:25 6:45 19/83 MRun 19/83 M
20 MICHAEL BROTHERS 21 M CINCINNATI OH 36:26 6:45 20/83 MRun 20/83 M
21 TOM GLASSCOCK 53 M WINCHESTER OH 36:35 6:47 21/83 MRun 21/83 M
22 RACHEL STOEHR 25 F ERLANGER KY 36:46 6:49 1/42 FRun 1/42 F
23 AL KOVACIC 33 M UNION KY 36:51 6:50 22/83 MRun 22/83 M
24 BRIAN SPARKMAN 22 M CINCINNATI OH 37:39 6:59 23/83 MRun 23/83 M
25 JOHN GEE 58 M SHARONVILLE OH 37:40 6:59 24/83 MRun 24/83 M
26 MICHAEL SMITH 44 M CINCINNATI OH 38:33 7:09 25/83 MRun 25/83 M
27 BRIAN TUMLIN 39 M HARRISON OH 39:54 7:24 26/83 MRun 26/83 M
28 TERRY BRENNAN 36 M CINCINNATI OH 39:59 7:25 27/83 MRun 27/83 M
29 KYLE COMBS 21 M CINCINNATI OH 40:02 7:25 28/83 MRun 28/83 M
30 CHRIS BURKE 29 M LOVELAND OH 40:07 7:26 29/83 MRun 29/83 M
31 LAUREN WAGNER 24 F CINCINNATI OH 40:13 7:27 2/42 FRun 2/42 F
32 CLAIRE SIMPSON 18 F WESTWOOD OH 40:20 7:29 3/42 FRun 3/42 F
33 CRAIG SHUHOLM 43 M SYCAMORE OH 40:41 7:33 30/83 MRun 30/83 M
34 CAROLINE NEWCOMB 28 F CAPE ELIZABETH ME 40:59 7:36 4/42 FRun 4/42 F
35 RUSSELL BLANCK 51 M CINCINNATI OH 41:41 7:44 31/83 MRun 31/83 M
36 BOB JOSEPH 38 M WESTERN HILLS OH 41:50 7:45 32/83 MRun 32/83 M
37 GERRY LOZANO 44 M CINCINATI OH 41:51 7:45 33/83 MRun 33/83 M
38 BILLY ANDERSON 42 M DIXIE KY 42:29 7:52 34/83 MRun 34/83 M
39 DEVIN COTTIER 20 M CINCINNATI OH 43:27 8:03 35/83 MRun 35/83 M
40 HEATHER POAST 26 F CINCINNATI OH 43:32 8:04 5/42 FRun 5/42 F
41 BILL ATKINSON 59 M CINCINNATI OH 43:34 8:04 36/83 MRun 36/83 M
42 JOHN QUINN 28 M CINCINNATI OH 43:35 8:05 37/83 MRun 37/83 M
43 JAMES WILLIS 32 M WEST CHESTER OH 43:37 8:05 38/83 MRun 38/83 M
44 ELAINE SIMPSON 15 F WESTWOOD OH 43:41 8:06 6/42 FRun 6/42 F
45 DAVID KREKELER 48 M TAFT OH 43:41 8:06 39/83 MRun 39/83 M
46 TOM ALLMAN 37 M CINCINNATI OH 43:42 8:06 40/83 MRun 40/83 M
47 DAVID SIMPSON 45 M WESTWOOD OH 43:44 8:06 41/83 MRun 41/83 M
48 JOHN TWOMBLY 56 M CINCINNATI OH 43:49 8:07 42/83 MRun 42/83 M
49 DAVE BARTA 36 M MAINEVILLE OH 43:52 8:08 43/83 MRun 43/83 M
50 JOSEPH FUNG 43 M CINCINNATI OH 43:55 8:08 44/83 MRun 44/83 M

Mt. Airy Forest Ridge Run - 5.4 Miles
Cincinnati, OH
Sunday, May 20, 2007 9:00 am


Results 5.4 mile Trail Run

Place Name Age Sex City State Time Pace Div/Tot Div Sex/Tot Sex
51 MELANIE MILES 42 F CINCINNATI OH 44:01 8:10 7/42 FRun 7/42 F
52 KEN CASSON 36 M 44:08 8:11 45/83 MRun 45/83 M
53 JOSEPH M KRAUSE 27 M CINCINNATI OH 44:15 8:12 46/83 MRun 46/83 M
54 BILL HOPKINS 64 M FORT THOMAS KY 44:16 8:12 47/83 MRun 47/83 M
55 JOE LITTRELL 30 M WEST CHESTER OH 44:17 8:12 48/83 MRun 48/83 M
56 ROBERT SIEGEL 50 M CINCINNATI OH 44:31 8:15 49/83 MRun 49/83 M
57 JILL SCHROEDER 28 F COVINGTON KY 44:32 8:15 8/42 FRun 8/42 F
58 JAMES FLYNN 32 M CINCINNATI OH 44:44 8:18 50/83 MRun 50/83 M
59 MICHELLE MASON 37 F CINCINNATI OH 45:19 8:24 9/42 FRun 9/42 F
60 SARA GATEWOOD 38 F CINCINNATI OH 45:26 8:25 10/42 FRun 10/42 F
61 ADAM LEWANDOWSKI 31 M FT. MITCHELL KY 45:27 8:25 51/83 MRun 51/83 M
62 BRIAN NIEHAUS 30 M CINCINNATI OH 45:28 8:26 52/83 MRun 52/83 M
63 TOM WAGNER 49 M COLLEGE HILL OH 45:37 8:27 53/83 MRun 53/83 M
64 CHRISTINA BEAUPRE 25 F SPRINGDALE OH 45:46 8:29 11/42 FRun 11/42 F
65 JIM RAHTZ 49 M GROESBECK OH 45:56 8:31 54/83 MRun 54/83 M
66 CHARLOTTA HEDBERG 26 F CINCINNATI OH 45:57 8:31 12/42 FRun 12/42 F
67 ALAN GOEDDE 43 M CINCINNATI OH 46:06 8:33 55/83 MRun 55/83 M
68 JEFF MAY 43 M LOVELAND OH 46:20 8:35 56/83 MRun 56/83 M
69 BRIAN TRUITT 28 M BATAVIA OH 47:13 8:45 57/83 MRun 57/83 M
70 GLEN RAHTZ 57 M GROESBECK OH 47:25 8:47 58/83 MRun 58/83 M
71 ROGER ROBINSON 54 M CINCINNATI OH 47:50 8:52 59/83 MRun 59/83 M
72 ALEX KUVIN 12 M LOVELAND OH 48:55 9:04 60/83 MRun 60/83 M
73 RANDALL KUVIN 44 M LOVELAND OH 48:56 9:04 61/83 MRun 61/83 M
74 CARLOS RAMIREZ 36 M CINCINNATI OH 48:58 9:04 62/83 MRun 62/83 M
75 MIKE SIX 37 M BURLINGTON KY 49:57 9:15 63/83 MRun 63/83 M
76 CYNDI KENYON 47 F MADISONVILLE OH 50:25 9:21 13/42 FRun 13/42 F
77 ROB STONEBERGER 41 M SYCAMORE OH 50:55 9:26 64/83 MRun 64/83 M
78 ADAM DIEBOLD 32 M ERLANGER KY 51:29 9:32 65/83 MRun 65/83 M
79 DAVID LASSE 58 M BLUE ASH OH 52:00 9:38 66/83 MRun 66/83 M
80 KRISTI TATRO 31 F MONROE OH 52:01 9:38 14/42 FRun 14/42 F
81 MEGAN BLAKE 27 F MIDDLETOWN OH 52:09 9:40 15/42 FRun 15/42 F
82 JERRY REEVES 33 M GROESBECK OH 52:10 9:40 67/83 MRun 67/83 M
83 JAMIE GERDEMANN 30 F SOUTH LEBANON OH 52:43 9:46 16/42 FRun 16/42 F
84 STACIE TUMLIN 34 F HARRISON OH 52:58 9:49 17/42 FRun 17/42 F
85 DAVE WIRTH 31 M CINCINNATI OH 53:11 9:51 68/83 MRun 68/83 M
86 MARILYN RAMIREZ 32 F OH 53:21 9:53 18/42 FRun 18/42 F
87 KIM FLYNN 32 F CINCINNATI OH 53:24 9:54 19/42 FRun 19/42 F
88 JENNIFER CANAVAN 35 F CINCINNATI OH 53:25 9:54 20/42 FRun 20/42 F
89 PATRICK WILLIS 34 M MONTICELLO IL 53:29 9:55 69/83 MRun 69/83 M
90 LAURIE WOBSER 37 F CINCINNATI OH 53:54 9:59 21/42 FRun 21/42 F
91 SAMANTHA HORTON 30 F WESTERN HILLS OH 54:14 10:03 22/42 FRun 22/42 F
92 HEIDI FINNIFF 36 F CINCINNATI OH 54:26 10:05 23/42 FRun 23/42 F
93 RACHEL WIRTH 27 F CINCINNATI OH 54:42 10:08 24/42 FRun 24/42 F
94 TRISHA DURHAM 31 F CINCINNATI OH 54:56 10:11 25/42 FRun 25/42 F
95 ARITY HASSON 28 F CINCINNATI OH 55:37 10:18 26/42 FRun 26/42 F
96 BYRON MUSGROVE 36 M CINCINNATI OH 55:40 10:19 70/83 MRun 70/83 M
97 DONNA ANDERSON 54 F CINCINNATI OH 55:41 10:19 27/42 FRun 27/42 F
98 JACK PILLE 58 M LUDLOW KY 55:44 10:20 71/83 MRun 71/83 M
99 AMANDA TEMPEL 17 F ST.BERNARD OH 55:55 10:22 28/42 FRun 28/42 F
100 JESSICA GORDON 27 F CINCINNATI OH 56:06 10:24 29/42 FRun 29/42 F

Mt. Airy Forest Ridge Run - 5.4 Miles
Cincinnati, OH
Sunday, May 20, 2007 9:00 am


Results 5.4 mile Trail Run

Place Name Age Sex City State Time Pace Div/Tot Div Sex/Tot Sex
101 JOE POWER 57 M CINCINNATI OH 57:16 10:37 72/83 MRun 72/83 M
102 JON KRUMPELBECK 19 M CINCINNATI OH 57:43 10:42 73/83 MRun 73/83 M
103 CHRIS STITES 20 M CINCINNATI OH 57:44 10:42 74/83 MRun 74/83 M
104 SUZANNE BLACK 48 F LOVELAND OH 57:45 10:42 30/42 FRun 30/42 F
105 SCOTT CASSON 31 M UNION KY 57:46 10:42 75/83 MRun 75/83 M
106 ALLEN WATTS 47 M LOVELAND OH 57:47 10:42 76/83 MRun 76/83 M
107 JENNIFER CLODFELTER 37 F LOVELAND OH 58:27 10:50 31/42 FRun 31/42 F
108 RAQUEL ROZAS 31 F 58:43 10:53 32/42 FRun 32/42 F
109 CHRIS VANCE 31 M 58:44 10:53 77/83 MRun 77/83 M
110 DAVID CLODFELTER 40 M LOVELAND OH 59:43 11:04 78/83 MRun 78/83 M
111 CHRIS MERCURIO 29 M LOVELAND OH 59:50 11:05 79/83 MRun 79/83 M
112 RUTH ALLENDOERFER 50 F CINCINNATI OH 1:02:53 11:39 33/42 FRun 33/42 F
113 AMY WERTHEIMER 39 F CINCINNATI OH 1:03:13 11:43 34/42 FRun 34/42 F
114 SALLY HEIDELBERG 42 F CINCINNATI OH 1:03:44 11:49 35/42 FRun 35/42 F
115 NICOLE GRANITZNY 35 F BURLINGTON KY 1:03:52 11:50 36/42 FRun 36/42 F
116 PETE DEWBURY 69 M DAY HEIGHTS OH 1:04:45 12:00 80/83 MRun 80/83 M
117 GARRY HUYSSE 33 M MAINEVILLE OH 1:04:54 12:02 81/83 MRun 81/83 M
118 CINDY SMITH 45 F HAMILTON OH 1:09:09 12:49 37/42 FRun 37/42 F
119 MICHELLE CATCHING 35 F MADISONVILLE OH 1:09:42 12:55 38/42 FRun 38/42 F
120 MITCHELL RUEVE 11 M CINCINNATI OH 1:11:24 13:14 82/83 MRun 82/83 M
121 LAURIE DAVIS 41 F CINCINNATI OH 1:11:25 13:14 39/42 FRun 39/42 F
122 ALISHA SHELINE 21 F CINCINNATI OH 1:21:10 15:02 40/42 FRun 40/42 F
123 APRIL WEBSTER 26 F FAIRFIELD OH 1:21:11 15:02 41/42 FRun 41/42 F
124 TONYA FISCHER 36 F CINCINNATI OH 1:21:32 15:06 42/42 FRun 42/42 F
125 BRIAN NASH 47 M CINCINNATI OH 1:23:23 15:27 83/83 MRun 83/83 M